This is the latest recevied weather packets stored in our database for station/object DH7LK-5. If no packets are shown the sender has not sent any weather packets the latest 1 day(s).
| Time | Temp. | Humidity | Pressure | Rain* | Wind** | Luminosity | Snow |
|---|---|---|---|---|---|---|---|
| 1777967101 | 16.67° C | 84% | 1009.7 hPa | 0 mm | 0 m/s | - | - |
| 1777965300 | 16.67° C | 82% | 1009.5 hPa | 0 mm | 0.45 m/s, 136° | - | - |
| 1777963499 | 16.11° C | 84% | 1009.3 hPa | 0 mm | 0.89 m/s, 120° | - | - |
| 1777961693 | 15.56° C | 84% | 1009.5 hPa | 0 mm | 1.34 m/s, 129° | - | - |
| 1777959892 | 15.56° C | 86% | 1009.6 hPa | 0 mm | 1.79 m/s, 128° | - | - |
| 1777958090 | 15° C | 87% | 1009.7 hPa | 0 mm | 1.34 m/s, 132° | - | - |
| 1777956285 | 15° C | 88% | 1009.5 hPa | 0 mm | 1.79 m/s, 122° | - | - |
| 1777954477 | 15° C | 86% | 1009.9 hPa | 0 mm | 0.89 m/s, 1° | - | - |
| 1777952677 | 15° C | 86% | 1009.9 hPa | 0 mm | 0 m/s | - | - |
| 1777950876 | 15° C | 86% | 1010 hPa | 0 mm | 0 m/s | - | - |
| 1777949074 | 15° C | 85% | 1010.2 hPa | 0 mm | 0.45 m/s, 350° | - | - |
| 1777947274 | 15.56° C | 84% | 1010.6 hPa | 0 mm | 0 m/s | - | - |
| 1777945474 | 16.11° C | 82% | 1010.7 hPa | 0 mm | 0 m/s | - | - |
| 1777943672 | 16.11° C | 81% | 1010.9 hPa | 0 mm | 0.45 m/s, 248° | - | - |
| 1777941871 | 16.11° C | 80% | 1010.6 hPa | 0 mm | 0.89 m/s, 98° | - | - |
| 1777940071 | 16.11° C | 80% | 1010.9 hPa | 0 mm | 1.34 m/s, 110° | - | - |
| 1777938270 | 16.11° C | 83% | 1011.2 hPa | 0.25 mm | 0.45 m/s, 129° | - | - |
| 1777936469 | 15.56° C | 83% | 1011.4 hPa | 0.25 mm | 0 m/s | - | - |
| 1777934669 | 16.11° C | 80% | 1011.4 hPa | 0.25 mm | 0 m/s | - | - |
| 1777932868 | 16.67° C | 77% | 1011.5 hPa | 0.25 mm | 0 m/s | - | - |
| 1777931073 | 17.22° C | 75% | 1011.6 hPa | 0.25 mm | 0 m/s | - | - |
| 1777929267 | 17.22° C | 74% | 1011.9 hPa | 0.25 mm | 0 m/s | - | - |
| 1777927466 | 17.78° C | 73% | 1011.8 hPa | 0.25 mm | 0 m/s | - | - |
* Rain since midnight (hover to see other rain measurements)
** Current wind speed in m/s (hover to see current wind gust speed)